createdAt,value
2022-12-25T00:01:03.806Z,8.6
2022-12-25T00:06:03.767Z,8.6
2022-12-25T00:11:03.776Z,8.5
2022-12-25T00:16:03.802Z,8.5
2022-12-25T00:21:03.793Z,8.5
2022-12-25T00:26:03.807Z,8.5
2022-12-25T00:31:03.813Z,8.5
2022-12-25T00:36:03.711Z,8.4
2022-12-25T00:41:03.723Z,8.4
2022-12-25T00:46:03.834Z,8.4
2022-12-25T00:51:03.714Z,8.4
2022-12-25T00:56:03.736Z,8.4
2022-12-25T01:01:03.779Z,8.4
2022-12-25T01:06:03.762Z,8.3
2022-12-25T01:11:03.753Z,8.3
2022-12-25T01:16:03.760Z,8.3
2022-12-25T01:21:03.732Z,8.3
2022-12-25T01:26:03.741Z,8.2
2022-12-25T01:31:03.705Z,8.2
2022-12-25T01:36:03.726Z,8.1
2022-12-25T01:41:03.714Z,8.1
2022-12-25T01:46:03.783Z,8.1
2022-12-25T01:51:03.774Z,8
2022-12-25T01:56:03.717Z,8
2022-12-25T02:01:03.764Z,7.9
2022-12-25T02:06:03.730Z,7.9
2022-12-25T02:11:03.787Z,7.9
2022-12-25T02:16:03.776Z,7.9
2022-12-25T02:21:03.720Z,7.8
2022-12-25T02:26:03.773Z,7.8
2022-12-25T02:31:03.697Z,7.8
2022-12-25T02:36:03.742Z,7.7
2022-12-25T02:41:03.758Z,7.7
2022-12-25T02:46:03.792Z,7.6
2022-12-25T02:51:03.739Z,7.6
2022-12-25T02:56:03.729Z,7.6
2022-12-25T03:01:03.769Z,7.5
2022-12-25T03:06:03.752Z,7.5
2022-12-25T03:11:03.725Z,7.4
2022-12-25T03:16:03.733Z,7.4
2022-12-25T03:21:03.722Z,7.4
2022-12-25T03:26:03.732Z,7.4
2022-12-25T03:31:03.783Z,7.3
2022-12-25T03:36:03.696Z,7.3
2022-12-25T03:41:03.735Z,7.3
2022-12-25T03:46:03.748Z,7.3
2022-12-25T03:51:03.714Z,7.3
2022-12-25T03:56:03.699Z,7.2
2022-12-25T04:01:03.797Z,7.2
2022-12-25T04:06:03.747Z,7.2
2022-12-25T04:11:03.725Z,7.1
2022-12-25T04:16:03.790Z,7.1
2022-12-25T04:21:03.776Z,7.1
2022-12-25T04:26:03.744Z,7.1
2022-12-25T04:31:03.777Z,7.1
2022-12-25T04:36:03.714Z,7.1
2022-12-25T04:41:03.900Z,7
2022-12-25T04:46:03.786Z,7
2022-12-25T04:51:03.738Z,6.9
2022-12-25T04:56:03.746Z,6.9
2022-12-25T05:01:03.743Z,6.9
2022-12-25T05:06:03.751Z,6.9
2022-12-25T05:11:03.749Z,6.9
2022-12-25T05:16:03.755Z,6.9
2022-12-25T05:21:03.739Z,6.9
2022-12-25T05:26:03.780Z,6.8
2022-12-25T05:31:03.786Z,6.8
2022-12-25T05:36:03.758Z,6.8
2022-12-25T05:41:03.913Z,6.8
2022-12-25T05:46:03.770Z,6.8
2022-12-25T05:51:03.762Z,6.8
2022-12-25T05:56:03.756Z,6.8
2022-12-25T06:01:03.782Z,6.7
2022-12-25T06:06:03.776Z,6.7
2022-12-25T06:11:03.751Z,6.7
2022-12-25T06:16:03.828Z,6.7
2022-12-25T06:21:03.760Z,6.6
2022-12-25T06:26:03.794Z,6.6
2022-12-25T06:31:03.899Z,6.6
2022-12-25T06:36:03.747Z,6.6
2022-12-25T06:41:03.781Z,6.6
2022-12-25T06:46:03.836Z,6.5
2022-12-25T06:51:03.759Z,6.5
2022-12-25T06:56:03.744Z,6.5
2022-12-25T07:01:03.951Z,6.4
2022-12-25T07:06:03.790Z,6.4
2022-12-25T07:11:03.755Z,6.4
2022-12-25T07:16:03.831Z,6.4
2022-12-25T07:21:03.772Z,6.3
2022-12-25T07:26:03.767Z,6.3
2022-12-25T07:31:03.778Z,6.3
2022-12-25T07:36:03.776Z,6.3
2022-12-25T07:41:03.786Z,6.3
2022-12-25T07:46:03.843Z,6.2
2022-12-25T07:51:03.766Z,6.2
2022-12-25T07:56:03.760Z,6.1
2022-12-25T08:01:03.973Z,6.1
2022-12-25T08:06:03.803Z,6.1
2022-12-25T08:11:03.777Z,6.1
2022-12-25T08:16:03.771Z,6
2022-12-25T08:21:03.765Z,6
2022-12-25T08:26:05.238Z,6
2022-12-25T08:31:03.791Z,6
2022-12-25T08:36:03.749Z,5.9
2022-12-25T08:41:03.783Z,5.9
2022-12-25T08:46:03.812Z,5.9
2022-12-25T08:51:03.803Z,5.9
2022-12-25T08:56:03.781Z,5.9
2022-12-25T09:01:03.807Z,5.9
2022-12-25T09:06:03.799Z,5.9
2022-12-25T09:11:03.789Z,5.9
2022-12-25T09:16:03.820Z,5.9
2022-12-25T09:21:03.785Z,5.9
2022-12-25T09:26:03.787Z,5.9
2022-12-25T09:31:03.830Z,5.9
2022-12-25T09:36:03.772Z,5.9
2022-12-25T09:41:03.790Z,5.9
2022-12-25T09:46:03.817Z,5.9
2022-12-25T09:51:03.814Z,5.9
2022-12-25T09:56:03.777Z,5.9
2022-12-25T10:01:03.804Z,5.9
2022-12-25T10:06:03.799Z,5.9
2022-12-25T10:11:03.788Z,5.9
2022-12-25T10:16:03.840Z,5.9
2022-12-25T10:21:06.815Z,5.9
2022-12-25T10:26:03.824Z,5.9
2022-12-25T10:31:03.864Z,5.9
2022-12-25T10:36:03.798Z,6
2022-12-25T10:41:03.797Z,6
2022-12-25T10:46:03.875Z,6
2022-12-25T10:51:03.817Z,6
2022-12-25T10:56:03.816Z,6.1
2022-12-25T11:01:03.821Z,6.1
2022-12-25T11:06:03.823Z,6.1
2022-12-25T11:11:03.802Z,6.1
2022-12-25T11:16:03.876Z,6.2
2022-12-25T11:21:03.823Z,6.2
2022-12-25T11:26:03.832Z,6.2
2022-12-25T11:31:03.844Z,6.2
2022-12-25T11:36:03.819Z,6.3
2022-12-25T11:41:03.813Z,6.3
2022-12-25T11:46:03.824Z,6.3
2022-12-25T11:51:03.822Z,6.3
2022-12-25T11:56:03.822Z,6.3
2022-12-25T12:01:03.832Z,6.3
2022-12-25T12:06:03.866Z,6.3
2022-12-25T12:11:03.804Z,6.3
2022-12-25T12:16:03.866Z,6.3
2022-12-25T12:21:03.833Z,6.4
2022-12-25T12:26:03.931Z,6.4
2022-12-25T12:31:03.847Z,6.4
2022-12-25T12:36:03.818Z,6.4
2022-12-25T12:41:03.846Z,6.4
2022-12-25T12:46:03.905Z,6.4
2022-12-25T12:51:03.820Z,6.4
2022-12-25T12:56:03.820Z,6.4
2022-12-25T13:01:03.882Z,6.4
2022-12-25T13:06:03.860Z,6.4
2022-12-25T13:11:03.844Z,6.4
2022-12-25T13:16:03.868Z,6.5
2022-12-25T13:21:03.846Z,6.5
2022-12-25T13:26:03.861Z,6.5
2022-12-25T13:31:03.839Z,6.5
2022-12-25T13:36:03.834Z,6.6
2022-12-25T13:41:03.841Z,6.6
2022-12-25T13:46:03.940Z,6.6
2022-12-25T13:51:03.869Z,6.6
2022-12-25T13:56:03.835Z,6.6
2022-12-25T14:01:03.923Z,6.6
2022-12-25T14:06:03.868Z,6.6
2022-12-25T14:11:03.926Z,6.7
2022-12-25T14:16:03.868Z,6.7
2022-12-25T14:21:03.841Z,6.7
2022-12-25T14:26:03.871Z,6.7
2022-12-25T14:31:03.941Z,6.8
2022-12-25T14:36:03.863Z,6.8
2022-12-25T14:41:03.866Z,6.8
2022-12-25T14:46:03.992Z,6.8
2022-12-25T14:51:03.869Z,6.8
2022-12-25T14:56:03.880Z,6.8
2022-12-25T15:01:03.952Z,6.8
2022-12-25T15:06:03.959Z,6.8
2022-12-25T15:11:04.399Z,6.9
2022-12-25T15:16:04.172Z,6.9
2022-12-25T15:21:03.961Z,6.9
2022-12-25T15:26:03.955Z,6.9
2022-12-25T15:31:03.974Z,6.9
2022-12-25T15:36:03.985Z,6.9
2022-12-25T15:41:03.983Z,6.9
2022-12-25T15:46:03.974Z,6.9
2022-12-25T15:51:03.947Z,6.9
2022-12-25T15:56:03.951Z,7
2022-12-25T16:01:03.975Z,7
2022-12-25T16:06:03.974Z,7
2022-12-25T16:11:04.036Z,7
2022-12-25T16:16:04.143Z,7.1
2022-12-25T16:21:04.064Z,7.1
2022-12-25T16:26:04.070Z,7.1
2022-12-25T16:31:03.972Z,7.1
2022-12-25T16:36:03.940Z,7.1
2022-12-25T16:41:04.096Z,7.1
2022-12-25T16:46:04.280Z,7.2
2022-12-25T16:51:04.023Z,7.2
2022-12-25T16:56:04.012Z,7.2
2022-12-25T17:01:04.030Z,7.3
2022-12-25T17:06:04.028Z,7.3
2022-12-25T17:11:04.021Z,7.3
2022-12-25T17:16:03.999Z,7.3
2022-12-25T17:21:03.997Z,7.3
2022-12-25T17:26:04.013Z,7.3
2022-12-25T17:31:04.018Z,7.4
2022-12-25T17:36:04.258Z,7.4
2022-12-25T17:41:03.995Z,7.4
2022-12-25T17:46:04.144Z,7.4
2022-12-25T17:51:03.992Z,7.4
2022-12-25T17:56:03.985Z,7.5
2022-12-25T18:01:03.996Z,7.5
2022-12-25T18:06:04.028Z,7.5
2022-12-25T18:11:04.006Z,7.6
2022-12-25T18:16:04.021Z,7.6
2022-12-25T18:21:03.996Z,7.6
2022-12-25T18:26:04.013Z,7.6
2022-12-25T18:31:04.023Z,7.6
2022-12-25T18:36:04.000Z,7.6
2022-12-25T18:41:03.990Z,7.7
2022-12-25T18:46:04.045Z,7.7
2022-12-25T18:51:03.988Z,7.8
2022-12-25T18:56:03.986Z,7.8
2022-12-25T19:01:04.028Z,7.8
2022-12-25T19:06:04.004Z,7.8
2022-12-25T19:11:03.981Z,7.8
2022-12-25T19:16:04.007Z,7.8
2022-12-25T19:21:03.987Z,7.9
2022-12-25T19:26:03.996Z,7.9
2022-12-25T19:31:03.999Z,7.9
2022-12-25T19:36:03.965Z,7.9
2022-12-25T19:41:03.988Z,7.9
2022-12-25T19:46:04.168Z,8
2022-12-25T19:51:04.014Z,8
2022-12-25T19:56:04.005Z,8
2022-12-25T20:01:04.059Z,8
2022-12-25T20:06:04.101Z,8
2022-12-25T20:11:04.099Z,8
2022-12-25T20:16:04.114Z,8
2022-12-25T20:21:04.199Z,8
2022-12-25T20:26:04.229Z,8
2022-12-25T20:31:04.211Z,8.2
2022-12-25T20:36:04.211Z,8.3
2022-12-25T20:41:32.196Z,8.3
2022-12-25T20:46:04.337Z,8.3
2022-12-25T20:51:04.261Z,8.3
2022-12-25T20:56:04.290Z,8.4
2022-12-25T21:01:04.402Z,8.4
2022-12-25T21:06:04.338Z,8.4
2022-12-25T21:11:04.353Z,8.4
2022-12-25T21:16:04.348Z,8.4
2022-12-25T21:21:04.388Z,8.5
2022-12-25T21:26:04.399Z,8.5
2022-12-25T21:31:04.544Z,8.6
2022-12-25T21:36:04.488Z,8.6
2022-12-25T21:41:04.420Z,8.6
2022-12-25T21:46:04.496Z,8.6
2022-12-25T21:51:04.515Z,8.7
2022-12-25T21:56:04.434Z,8.7
2022-12-25T22:01:04.477Z,8.8
2022-12-25T22:06:04.460Z,8.8
2022-12-25T22:11:04.422Z,8.8
2022-12-25T22:16:04.494Z,8.8
2022-12-25T22:21:04.470Z,8.8
2022-12-25T22:26:04.453Z,8.9
2022-12-25T22:31:04.511Z,8.9
2022-12-25T22:36:04.416Z,8.9
2022-12-25T22:41:04.420Z,8.9
2022-12-25T22:46:04.480Z,8.9
2022-12-25T22:51:04.441Z,9
2022-12-25T22:56:04.410Z,9
2022-12-25T23:01:04.416Z,9.1
2022-12-25T23:06:04.458Z,9.1
2022-12-25T23:11:04.430Z,9.1
2022-12-25T23:16:04.479Z,9.1
2022-12-25T23:21:04.435Z,9.1
2022-12-25T23:26:04.465Z,9.2
2022-12-25T23:31:04.456Z,9.2
2022-12-25T23:36:04.408Z,9.3
2022-12-25T23:41:04.415Z,9.3
2022-12-25T23:46:04.477Z,9.3
2022-12-25T23:51:04.421Z,9.3
2022-12-25T23:56:04.414Z,9.4
